Terminal Aerodrome Forecast
Issued by NWS

Home | Current Version | Previous Version | Text Only | Print | Product List | Glossary On
Versions: 1 2 3 4 5 6 7 8 9 10 11 12
000
FTUS44 KMAF 271700 RRA
TAFPEQ
TAF
KPEQ 271744Z 2718/2818 36008KT 6SM -RA BR BKN010 OVC030
     FM280000 01006KT P6SM BKN030
     FM280600 VRB02KT P6SM BKN050
     FM281400 24007KT P6SM SCT050=

USA.gov is the U.S. government's official web portal to all federal, state and local government web resources and services.